Portada
METAR-TAF:

METAR-TAF

Aeropuertos :

Bergerac, Francia

latitud: 44-49N, longitud: 000-31E, altitud: 51 m

Observación

El informe se hizo hace 38 minutos, a las 13:00 UTC
Viento 4 kt del noroeste, variando entre oeste-suroeste y noreste
Temperatura 11°C
Humedad 58%
Presión 1035 hPa
Visibilidad 10 km o más
sin nubes por debajo de 1500 m y sin presencia de cumulonimbus.

METAR: LFBE 031300Z AUTO 31004KT 250V040 CAVOK 11/03 Q1035 NOSIG

Hora: 14:38 (13:38 UTC)

Pronóstico

El informe se hizo hace 2 horas y 38 minutos, a las 11:00 UTC
Pronóstico válido del 03 a las 12 UTC al 04 a las 12 UTC
Viento 2 kt con dirección variable
Visibilidad 10 km o más
sin nubes por debajo de 1500 m y sin presencia de cumulonimbus.
Probabilidad 30% :
Temporalmente
del 04 a las 03 UTC al 04 a las 09 UTC
Visibilidad: 1500 m
Niebla baja

TAF: LFBE 031100Z 0312/0412 VRB02KT CAVOK PROB30 TEMPO 0403/0409 1500 MIFG

Observaciones y pronósticos meteorológicos de más de 4000 aeropuertos (mensajes METAR y TAF).

Los puntos amarillos y rojos representan las estaciones disponibles.

Ponga el ratón en el punto deseado para ver el nombre de la estación.

Haga clic para ver las observaciones y los pronósticos meteorológicos.

Para cambiar el mapa : haga clic en los botones verdes con una cruz de color negro para hacer un zoom, en el botón verde con un guión para alejar o en las flechas verdes para mapas adyacentes.


METAR-TAF: